sensor_id;sensor_type;location;lat;lon;timestamp;pressure;altitude;pressure_sealevel;temperature;humidity
16030;BME280;34770;49.272;11.070;2022-07-23T00:00:01;97622.91;;;19.45;100.00
16030;BME280;34770;49.272;11.070;2022-07-23T00:02:26;97620.53;;;19.74;100.00
16030;BME280;34770;49.272;11.070;2022-07-23T00:04:52;97626.84;;;19.51;100.00
16030;BME280;34770;49.272;11.070;2022-07-23T00:07:17;97626.31;;;19.25;100.00
16030;BME280;34770;49.272;11.070;2022-07-23T00:09:42;97620.81;;;19.11;100.00
16030;BME280;34770;49.272;11.070;2022-07-23T00:12:08;97627.00;;;19.37;100.00
16030;BME280;34770;49.272;11.070;2022-07-23T00:14:33;97634.50;;;19.54;100.00
16030;BME280;34770;49.272;11.070;2022-07-23T00:16:59;97631.56;;;19.61;100.00
16030;BME280;34770;49.272;11.070;2022-07-23T00:19:24;97633.56;;;19.65;100.00
16030;BME280;34770;49.272;11.070;2022-07-23T00:21:50;97629.22;;;19.56;100.00
16030;BME280;34770;49.272;11.070;2022-07-23T00:24:15;97631.06;;;19.32;100.00
16030;BME280;34770;49.272;11.070;2022-07-23T00:26:40;97625.47;;;19.28;100.00
16030;BME280;34770;49.272;11.070;2022-07-23T00:29:06;97619.94;;;19.18;100.00
16030;BME280;34770;49.272;11.070;2022-07-23T00:31:31;97626.31;;;19.25;100.00
16030;BME280;34770;49.272;11.070;2022-07-23T00:33:56;97611.00;;;19.26;100.00
16030;BME280;34770;49.272;11.070;2022-07-23T00:36:23;97603.66;;;19.36;100.00
16030;BME280;34770;49.272;11.070;2022-07-23T00:38:49;97607.81;;;19.59;100.00
16030;BME280;34770;49.272;11.070;2022-07-23T00:41:14;97608.63;;;19.59;100.00
16030;BME280;34770;49.272;11.070;2022-07-23T00:43:40;97605.56;;;19.81;100.00
16030;BME280;34770;49.272;11.070;2022-07-23T00:46:05;97609.22;;;19.78;100.00
16030;BME280;34770;49.272;11.070;2022-07-23T00:48:31;97595.97;;;19.75;100.00
16030;BME280;34770;49.272;11.070;2022-07-23T00:50:56;97595.78;;;19.89;100.00
16030;BME280;34770;49.272;11.070;2022-07-23T00:53:22;97597.81;;;19.89;100.00
16030;BME280;34770;49.272;11.070;2022-07-23T00:55:48;97589.78;;;19.87;100.00
16030;BME280;34770;49.272;11.070;2022-07-23T00:58:15;97591.72;;;19.90;100.00
16030;BME280;34770;49.272;11.070;2022-07-23T01:00:41;97592.78;;;20.04;100.00
16030;BME280;34770;49.272;11.070;2022-07-23T01:03:06;97593.53;;;19.73;100.00
16030;BME280;34770;49.272;11.070;2022-07-23T01:05:32;97595.34;;;19.56;100.00
16030;BME280;34770;49.272;11.070;2022-07-23T01:07:58;97597.56;;;19.72;100.00
16030;BME280;34770;49.272;11.070;2022-07-23T01:10:24;97608.66;;;19.56;100.00
16030;BME280;34770;49.272;11.070;2022-07-23T01:13:04;97606.38;;;19.78;100.00
16030;BME280;34770;49.272;11.070;2022-07-23T01:15:31;97602.94;;;19.98;100.00
16030;BME280;34770;49.272;11.070;2022-07-23T01:17:57;97586.84;;;19.95;100.00
16030;BME280;34770;49.272;11.070;2022-07-23T01:20:22;97610.59;;;19.63;100.00
16030;BME280;34770;49.272;11.070;2022-07-23T01:22:48;97608.06;;;19.72;100.00
16030;BME280;34770;49.272;11.070;2022-07-23T01:25:14;97600.22;;;19.90;100.00
16030;BME280;34770;49.272;11.070;2022-07-23T01:27:39;97592.41;;;20.02;100.00
16030;BME280;34770;49.272;11.070;2022-07-23T01:30:05;97601.06;;;20.18;100.00
16030;BME280;34770;49.272;11.070;2022-07-23T01:32:31;97601.50;;;20.17;100.00
16030;BME280;34770;49.272;11.070;2022-07-23T01:34:56;97606.84;;;20.07;100.00
16030;BME280;34770;49.272;11.070;2022-07-23T01:37:22;97609.75;;;19.66;100.00
16030;BME280;34770;49.272;11.070;2022-07-23T01:39:47;97612.03;;;19.78;100.00
16030;BME280;34770;49.272;11.070;2022-07-23T01:42:12;97626.09;;;19.47;100.00
16030;BME280;34770;49.272;11.070;2022-07-23T01:44:38;97612.25;;;19.60;100.00
16030;BME280;34770;49.272;11.070;2022-07-23T01:47:03;97620.88;;;19.80;100.00
16030;BME280;34770;49.272;11.070;2022-07-23T01:49:29;97625.66;;;19.87;100.00
16030;BME280;34770;49.272;11.070;2022-07-23T01:51:54;97628.41;;;19.94;100.00
16030;BME280;34770;49.272;11.070;2022-07-23T01:54:34;97618.31;;;19.93;100.00
16030;BME280;34770;49.272;11.070;2022-07-23T01:57:00;97627.06;;;20.06;100.00
16030;BME280;34770;49.272;11.070;2022-07-23T01:59:26;97618.09;;;20.11;100.00
16030;BME280;34770;49.272;11.070;2022-07-23T02:01:52;97620.47;;;20.16;100.00
16030;BME280;34770;49.272;11.070;2022-07-23T02:04:19;97631.28;;;20.21;100.00
16030;BME280;34770;49.272;11.070;2022-07-23T02:06:44;97626.03;;;20.23;100.00
16030;BME280;34770;49.272;11.070;2022-07-23T02:09:10;97626.78;;;20.28;100.00
16030;BME280;34770;49.272;11.070;2022-07-23T02:11:35;97630.06;;;20.22;100.00
16030;BME280;34770;49.272;11.070;2022-07-23T02:14:00;97631.88;;;20.09;100.00
16030;BME280;34770;49.272;11.070;2022-07-23T02:16:26;97629.31;;;20.18;100.00
16030;BME280;34770;49.272;11.070;2022-07-23T02:18:51;97615.13;;;20.22;100.00
16030;BME280;34770;49.272;11.070;2022-07-23T02:21:17;97614.91;;;20.09;100.00
16030;BME280;34770;49.272;11.070;2022-07-23T02:23:42;97610.84;;;20.10;100.00
16030;BME280;34770;49.272;11.070;2022-07-23T02:26:07;97607.63;;;20.12;100.00
16030;BME280;34770;49.272;11.070;2022-07-23T02:28:33;97605.00;;;20.24;100.00
16030;BME280;34770;49.272;11.070;2022-07-23T02:30:58;97600.69;;;20.16;100.00
16030;BME280;34770;49.272;11.070;2022-07-23T02:33:23;97605.91;;;20.18;100.00
16030;BME280;34770;49.272;11.070;2022-07-23T02:35:49;97595.78;;;20.20;100.00
16030;BME280;34770;49.272;11.070;2022-07-23T02:38:14;97591.41;;;20.16;100.00
16030;BME280;34770;49.272;11.070;2022-07-23T02:40:40;97596.41;;;20.04;100.00
16030;BME280;34770;49.272;11.070;2022-07-23T02:43:05;97607.59;;;19.77;100.00
16030;BME280;34770;49.272;11.070;2022-07-23T02:45:30;97603.56;;;19.78;100.00
16030;BME280;34770;49.272;11.070;2022-07-23T02:47:56;97587.00;;;19.80;100.00
16030;BME280;34770;49.272;11.070;2022-07-23T02:50:21;97580.16;;;19.81;100.00
16030;BME280;34770;49.272;11.070;2022-07-23T02:52:47;97583.59;;;19.96;100.00
16030;BME280;34770;49.272;11.070;2022-07-23T02:55:12;97576.78;;;19.93;100.00
16030;BME280;34770;49.272;11.070;2022-07-23T02:57:38;97565.47;;;19.59;100.00
16030;BME280;34770;49.272;11.070;2022-07-23T03:00:04;97585.53;;;19.68;100.00
16030;BME280;34770;49.272;11.070;2022-07-23T03:02:30;97586.28;;;19.72;100.00
16030;BME280;34770;49.272;11.070;2022-07-23T03:04:56;97586.03;;;19.59;100.00
16030;BME280;34770;49.272;11.070;2022-07-23T03:07:21;97605.50;;;19.50;100.00
16030;BME280;34770;49.272;11.070;2022-07-23T03:09:47;97613.25;;;19.42;100.00
16030;BME280;34770;49.272;11.070;2022-07-23T03:12:12;97578.97;;;19.44;100.00
16030;BME280;34770;49.272;11.070;2022-07-23T03:14:38;97604.19;;;19.58;100.00
16030;BME280;34770;49.272;11.070;2022-07-23T03:17:03;97598.03;;;19.67;100.00
16030;BME280;34770;49.272;11.070;2022-07-23T03:19:28;97586.31;;;19.69;100.00
16030;BME280;34770;49.272;11.070;2022-07-23T03:21:54;97594.84;;;19.65;100.00
16030;BME280;34770;49.272;11.070;2022-07-23T03:24:19;97585.16;;;19.66;100.00
16030;BME280;34770;49.272;11.070;2022-07-23T03:26:45;97595.25;;;19.64;100.00
16030;BME280;34770;49.272;11.070;2022-07-23T03:29:11;97587.66;;;19.60;100.00
16030;BME280;34770;49.272;11.070;2022-07-23T03:31:36;97585.34;;;19.48;100.00
16030;BME280;34770;49.272;11.070;2022-07-23T03:34:02;97585.22;;;19.24;100.00
16030;BME280;34770;49.272;11.070;2022-07-23T03:36:27;97605.22;;;18.95;100.00
16030;BME280;34770;49.272;11.070;2022-07-23T03:38:53;97593.50;;;19.01;100.00
16030;BME280;34770;49.272;11.070;2022-07-23T03:41:19;97604.84;;;18.86;100.00
16030;BME280;34770;49.272;11.070;2022-07-23T03:43:45;97606.03;;;18.89;100.00
16030;BME280;34770;49.272;11.070;2022-07-23T03:46:11;97614.44;;;19.00;100.00
16030;BME280;34770;49.272;11.070;2022-07-23T03:48:36;97612.94;;;18.88;100.00
16030;BME280;34770;49.272;11.070;2022-07-23T03:51:02;97623.13;;;18.71;100.00
16030;BME280;34770;49.272;11.070;2022-07-23T03:53:28;97614.75;;;18.60;100.00
16030;BME280;34770;49.272;11.070;2022-07-23T03:55:54;97626.75;;;18.68;100.00
16030;BME280;34770;49.272;11.070;2022-07-23T03:58:19;97621.00;;;18.86;100.00
16030;BME280;34770;49.272;11.070;2022-07-23T04:00:45;97614.84;;;19.02;100.00
16030;BME280;34770;49.272;11.070;2022-07-23T04:03:10;97619.59;;;19.12;100.00
16030;BME280;34770;49.272;11.070;2022-07-23T04:05:35;97622.34;;;19.19;100.00
16030;BME280;34770;49.272;11.070;2022-07-23T04:08:01;97626.31;;;19.25;100.00
16030;BME280;34770;49.272;11.070;2022-07-23T04:10:26;97625.53;;;19.21;100.00
16030;BME280;34770;49.272;11.070;2022-07-23T04:12:52;97626.69;;;19.27;100.00
16030;BME280;34770;49.272;11.070;2022-07-23T04:15:17;97629.00;;;19.40;98.93
16030;BME280;34770;49.272;11.070;2022-07-23T04:17:42;97640.50;;;19.56;97.73
16030;BME280;34770;49.272;11.070;2022-07-23T04:20:09;97640.34;;;19.71;93.17
16030;BME280;34770;49.272;11.070;2022-07-23T04:22:35;97634.13;;;19.87;89.68
16030;BME280;34770;49.272;11.070;2022-07-23T04:25:01;97637.13;;;20.07;86.70
16030;BME280;34770;49.272;11.070;2022-07-23T04:27:26;97633.25;;;20.24;84.44
16030;BME280;34770;49.272;11.070;2022-07-23T04:29:51;97645.28;;;20.32;84.41
16030;BME280;34770;49.272;11.070;2022-07-23T04:32:17;97648.41;;;20.38;83.90
16030;BME280;34770;49.272;11.070;2022-07-23T04:34:42;97653.91;;;20.49;83.36
16030;BME280;34770;49.272;11.070;2022-07-23T04:37:08;97649.81;;;20.53;82.04
16030;BME280;34770;49.272;11.070;2022-07-23T04:39:33;97652.09;;;20.62;81.48
16030;BME280;34770;49.272;11.070;2022-07-23T04:41:58;97656.47;;;20.67;81.31
16030;BME280;34770;49.272;11.070;2022-07-23T04:44:24;97659.31;;;20.67;81.43
16030;BME280;34770;49.272;11.070;2022-07-23T04:46:49;97656.44;;;20.70;81.19
16030;BME280;34770;49.272;11.070;2022-07-23T04:49:15;97655.66;;;20.70;81.83
16030;BME280;34770;49.272;11.070;2022-07-23T04:51:40;97653.59;;;20.74;81.37
16030;BME280;34770;49.272;11.070;2022-07-23T04:54:05;97667.88;;;20.91;81.44
16030;BME280;34770;49.272;11.070;2022-07-23T04:56:31;97657.91;;;20.82;85.81
16030;BME280;34770;49.272;11.070;2022-07-23T04:58:56;97655.06;;;20.82;83.12
16030;BME280;34770;49.272;11.070;2022-07-23T05:01:22;97662.34;;;20.83;90.95
16030;BME280;34770;49.272;11.070;2022-07-23T05:03:47;97657.13;;;20.82;92.91
16030;BME280;34770;49.272;11.070;2022-07-23T05:06:13;97653.22;;;20.72;92.75
16030;BME280;34770;49.272;11.070;2022-07-23T05:08:39;97666.19;;;20.66;96.29
16030;BME280;34770;49.272;11.070;2022-07-23T05:11:04;97657.03;;;20.58;91.54
16030;BME280;34770;49.272;11.070;2022-07-23T05:13:30;97670.19;;;20.72;93.80
16030;BME280;34770;49.272;11.070;2022-07-23T05:15:56;97646.78;;;20.68;92.63
16030;BME280;34770;49.272;11.070;2022-07-23T05:18:21;97667.88;;;20.91;93.57
16030;BME280;34770;49.272;11.070;2022-07-23T05:20:46;97664.63;;;20.65;94.69
16030;BME280;34770;49.272;11.070;2022-07-23T05:23:12;97669.53;;;20.88;93.05
16030;BME280;34770;49.272;11.070;2022-07-23T05:25:37;97675.09;;;20.95;94.93
16030;BME280;34770;49.272;11.070;2022-07-23T05:28:03;97676.03;;;21.12;90.67
16030;BME280;34770;49.272;11.070;2022-07-23T05:30:28;97677.06;;;21.22;86.12
16030;BME280;34770;49.272;11.070;2022-07-23T05:32:54;97668.63;;;21.42;83.87
16030;BME280;34770;49.272;11.070;2022-07-23T05:35:19;97682.16;;;21.58;81.00
16030;BME280;34770;49.272;11.070;2022-07-23T05:37:45;97682.38;;;21.67;79.51
16030;BME280;34770;49.272;11.070;2022-07-23T05:40:10;97677.72;;;21.77;79.87
16030;BME280;34770;49.272;11.070;2022-07-23T05:42:37;97690.31;;;21.96;77.86
16030;BME280;34770;49.272;11.070;2022-07-23T05:45:03;97676.91;;;22.01;77.81
16030;BME280;34770;49.272;11.070;2022-07-23T05:50:07;97676.59;;;22.35;76.18
16030;BME280;34770;49.272;11.070;2022-07-23T05:52:32;97674.91;;;22.38;75.15
16030;BME280;34770;49.272;11.070;2022-07-23T05:54:57;97683.06;;;22.56;75.04
16030;BME280;34770;49.272;11.070;2022-07-23T05:57:23;97686.00;;;22.69;74.22
16030;BME280;34770;49.272;11.070;2022-07-23T05:59:48;97678.69;;;22.88;73.64
16030;BME280;34770;49.272;11.070;2022-07-23T06:02:13;97691.44;;;22.96;72.86
16030;BME280;34770;49.272;11.070;2022-07-23T06:04:39;97688.19;;;22.98;72.81
16030;BME280;34770;49.272;11.070;2022-07-23T06:07:04;97694.31;;;23.13;72.39
16030;BME280;34770;49.272;11.070;2022-07-23T06:09:29;97697.47;;;23.18;72.57
16030;BME280;34770;49.272;11.070;2022-07-23T06:11:55;97692.84;;;23.24;71.53
16030;BME280;34770;49.272;11.070;2022-07-23T06:14:20;97697.19;;;23.29;71.64
16030;BME280;34770;49.272;11.070;2022-07-23T06:16:45;97693.91;;;23.31;71.52
16030;BME280;34770;49.272;11.070;2022-07-23T06:19:11;97702.50;;;23.44;70.91
16030;BME280;34770;49.272;11.070;2022-07-23T06:21:36;97696.19;;;23.52;70.44
16030;BME280;34770;49.272;11.070;2022-07-23T06:24:02;97704.97;;;23.58;69.84
16030;BME280;34770;49.272;11.070;2022-07-23T06:26:27;97706.13;;;23.61;69.61
16030;BME280;34770;49.272;11.070;2022-07-23T06:28:53;97712.78;;;23.70;69.30
16030;BME280;34770;49.272;11.070;2022-07-23T06:31:18;97697.06;;;23.66;68.22
16030;BME280;34770;49.272;11.070;2022-07-23T06:33:43;97707.16;;;24.00;68.27
16030;BME280;34770;49.272;11.070;2022-07-23T06:36:09;97706.19;;;24.19;67.83
16030;BME280;34770;49.272;11.070;2022-07-23T06:38:34;97702.47;;;24.35;66.82
16030;BME280;34770;49.272;11.070;2022-07-23T06:41:00;97719.31;;;24.43;66.68
16030;BME280;34770;49.272;11.070;2022-07-23T06:43:25;97712.91;;;24.55;65.54
16030;BME280;34770;49.272;11.070;2022-07-23T06:45:51;97714.53;;;24.69;64.21
16030;BME280;34770;49.272;11.070;2022-07-23T06:48:16;97712.50;;;24.82;64.74
16030;BME280;34770;49.272;11.070;2022-07-23T06:50:41;97713.63;;;24.72;64.87
16030;BME280;34770;49.272;11.070;2022-07-23T06:53:07;97713.38;;;24.66;64.01
16030;BME280;34770;49.272;11.070;2022-07-23T06:55:32;97703.50;;;24.71;63.74
16030;BME280;34770;49.272;11.070;2022-07-23T06:57:58;97720.91;;;24.73;63.81
16030;BME280;34770;49.272;11.070;2022-07-23T07:00:23;97727.41;;;24.74;63.73
16030;BME280;34770;49.272;11.070;2022-07-23T07:02:53;97730.47;;;24.66;64.17
16030;BME280;34770;49.272;11.070;2022-07-23T07:05:18;97724.47;;;24.48;64.46
16030;BME280;34770;49.272;11.070;2022-07-23T07:07:44;97735.28;;;24.53;64.56
16030;BME280;34770;49.272;11.070;2022-07-23T07:10:09;97733.50;;;24.59;64.29
16030;BME280;34770;49.272;11.070;2022-07-23T07:12:35;97737.44;;;25.04;62.92
16030;BME280;34770;49.272;11.070;2022-07-23T07:15:00;97736.41;;;25.37;61.74
16030;BME280;34770;49.272;11.070;2022-07-23T07:17:26;97742.72;;;25.79;61.26
16030;BME280;34770;49.272;11.070;2022-07-23T07:19:51;97732.78;;;25.97;60.66
16030;BME280;34770;49.272;11.070;2022-07-23T07:22:16;97746.31;;;25.58;59.88
16030;BME280;34770;49.272;11.070;2022-07-23T07:24:42;97756.59;;;25.42;60.53
16030;BME280;34770;49.272;11.070;2022-07-23T07:27:07;97765.78;;;25.33;59.79
16030;BME280;34770;49.272;11.070;2022-07-23T07:29:33;97756.81;;;25.48;60.07
16030;BME280;34770;49.272;11.070;2022-07-23T07:31:58;97755.69;;;25.58;59.69
16030;BME280;34770;49.272;11.070;2022-07-23T07:34:23;97758.59;;;25.68;59.38
16030;BME280;34770;49.272;11.070;2022-07-23T07:36:49;97750.41;;;25.70;58.90
16030;BME280;34770;49.272;11.070;2022-07-23T07:39:15;97758.81;;;25.73;59.25
16030;BME280;34770;49.272;11.070;2022-07-23T07:41:40;97761.81;;;25.57;58.97
16030;BME280;34770;49.272;11.070;2022-07-23T07:44:06;97765.16;;;25.90;59.23
16030;BME280;34770;49.272;11.070;2022-07-23T07:46:31;97747.69;;;26.01;57.88
16030;BME280;34770;49.272;11.070;2022-07-23T07:48:56;97771.13;;;26.31;57.54
16030;BME280;34770;49.272;11.070;2022-07-23T07:51:22;97761.50;;;26.38;57.36
16030;BME280;34770;49.272;11.070;2022-07-23T07:53:47;97763.69;;;26.56;56.92
16030;BME280;34770;49.272;11.070;2022-07-23T07:56:12;97756.91;;;26.85;57.58
16030;BME280;34770;49.272;11.070;2022-07-23T07:58:38;97763.78;;;26.74;57.33
16030;BME280;34770;49.272;11.070;2022-07-23T08:01:03;97770.03;;;26.38;56.35
16030;BME280;34770;49.272;11.070;2022-07-23T08:03:29;97757.47;;;27.02;56.49
16030;BME280;34770;49.272;11.070;2022-07-23T08:05:55;97774.25;;;27.22;54.40
16030;BME280;34770;49.272;11.070;2022-07-23T08:08:20;97765.94;;;26.61;52.87
16030;BME280;34770;49.272;11.070;2022-07-23T08:10:46;97782.13;;;26.64;53.55
16030;BME280;34770;49.272;11.070;2022-07-23T08:13:13;97786.75;;;27.15;54.13
16030;BME280;34770;49.272;11.070;2022-07-23T08:15:39;97782.41;;;27.01;53.62
16030;BME280;34770;49.272;11.070;2022-07-23T08:18:05;97773.28;;;27.25;53.23
16030;BME280;34770;49.272;11.070;2022-07-23T08:20:30;97790.28;;;27.29;50.94
16030;BME280;34770;49.272;11.070;2022-07-23T08:22:58;97802.28;;;27.14;51.29
16030;BME280;34770;49.272;11.070;2022-07-23T08:25:33;97788.81;;;27.46;50.94
16030;BME280;34770;49.272;11.070;2022-07-23T08:28:01;97791.81;;;27.11;50.61
16030;BME280;34770;49.272;11.070;2022-07-23T08:30:27;97805.81;;;26.74;52.55
16030;BME280;34770;49.272;11.070;2022-07-23T08:33:02;97799.41;;;26.83;52.26
16030;BME280;34770;49.272;11.070;2022-07-23T08:37:56;97804.22;;;27.49;50.48
16030;BME280;34770;49.272;11.070;2022-07-23T08:40:22;97801.38;;;27.49;51.05
16030;BME280;34770;49.272;11.070;2022-07-23T08:42:49;97806.38;;;27.76;51.33
16030;BME280;34770;49.272;11.070;2022-07-23T08:45:20;97810.81;;;27.36;51.67
16030;BME280;34770;49.272;11.070;2022-07-23T08:47:56;97814.16;;;26.24;53.27
16030;BME280;34770;49.272;11.070;2022-07-23T08:50:24;97831.19;;;26.37;53.99
16030;BME280;34770;49.272;11.070;2022-07-23T08:52:50;97829.06;;;25.80;54.78
16030;BME280;34770;49.272;11.070;2022-07-23T08:55:18;97835.06;;;25.82;54.99
16030;BME280;34770;49.272;11.070;2022-07-23T08:57:44;97846.16;;;25.67;55.19
16030;BME280;34770;49.272;11.070;2022-07-23T09:00:09;97849.06;;;25.25;56.57
16030;BME280;34770;49.272;11.070;2022-07-23T09:02:42;97859.84;;;25.04;57.57
16030;BME280;34770;49.272;11.070;2022-07-23T09:05:09;97866.84;;;24.87;58.91
16030;BME280;34770;49.272;11.070;2022-07-23T09:07:37;97869.22;;;24.59;58.52
16030;BME280;34770;49.272;11.070;2022-07-23T09:10:10;97876.13;;;24.28;60.23
16030;BME280;34770;49.272;11.070;2022-07-23T09:12:37;97868.41;;;24.29;59.39
16030;BME280;34770;49.272;11.070;2022-07-23T09:15:05;97869.19;;;24.29;58.97
16030;BME280;34770;49.272;11.070;2022-07-23T09:17:38;97898.53;;;23.93;60.87
16030;BME280;34770;49.272;11.070;2022-07-23T09:20:08;97896.94;;;23.92;60.95
16030;BME280;34770;49.272;11.070;2022-07-23T09:22:34;97890.03;;;23.20;63.11
16030;BME280;34770;49.272;11.070;2022-07-23T09:25:08;97908.56;;;23.45;63.24
16030;BME280;34770;49.272;11.070;2022-07-23T09:30:22;97902.31;;;23.33;63.15
16030;BME280;34770;49.272;11.070;2022-07-23T09:33:23;97910.97;;;23.06;64.44
16030;BME280;34770;49.272;11.070;2022-07-23T09:35:53;97902.38;;;23.09;63.84
16030;BME280;34770;49.272;11.070;2022-07-23T09:38:21;97900.66;;;22.95;63.86
16030;BME280;34770;49.272;11.070;2022-07-23T09:41:07;97894.38;;;22.64;65.12
16030;BME280;34770;49.272;11.070;2022-07-23T09:43:34;97875.63;;;22.90;64.61
16030;BME280;34770;49.272;11.070;2022-07-23T09:46:19;97890.00;;;23.00;64.24
16030;BME280;34770;49.272;11.070;2022-07-23T09:48:46;97879.25;;;22.71;64.73
16030;BME280;34770;49.272;11.070;2022-07-23T09:51:12;97887.50;;;22.41;66.44
16030;BME280;34770;49.272;11.070;2022-07-23T09:53:38;97881.75;;;22.21;67.99
16030;BME280;34770;49.272;11.070;2022-07-23T09:56:04;97900.44;;;22.42;68.39
16030;BME280;34770;49.272;11.070;2022-07-23T09:58:30;97891.59;;;22.37;68.38
16030;BME280;34770;49.272;11.070;2022-07-23T10:00:57;97893.47;;;21.99;69.52
16030;BME280;34770;49.272;11.070;2022-07-23T10:03:23;97895.88;;;22.01;70.63
16030;BME280;34770;49.272;11.070;2022-07-23T10:05:49;97885.41;;;22.45;70.02
16030;BME280;34770;49.272;11.070;2022-07-23T10:08:18;97898.13;;;22.57;69.44
16030;BME280;34770;49.272;11.070;2022-07-23T10:10:46;97902.75;;;22.71;69.84
16030;BME280;34770;49.272;11.070;2022-07-23T10:13:11;97893.13;;;22.65;69.59
16030;BME280;34770;49.272;11.070;2022-07-23T10:15:50;97888.44;;;22.99;69.30
16030;BME280;34770;49.272;11.070;2022-07-23T10:18:16;97887.63;;;22.10;71.65
16030;BME280;34770;49.272;11.070;2022-07-23T10:20:42;97901.03;;;22.54;72.02
16030;BME280;34770;49.272;11.070;2022-07-23T10:23:22;97881.19;;;22.54;71.14
16030;BME280;34770;49.272;11.070;2022-07-23T10:26:17;97896.56;;;22.56;72.45
16030;BME280;34770;49.272;11.070;2022-07-23T10:28:58;97900.19;;;22.97;70.80
16030;BME280;34770;49.272;11.070;2022-07-23T10:34:02;97903.91;;;23.14;69.38
16030;BME280;34770;49.272;11.070;2022-07-23T10:36:49;97899.53;;;22.69;71.01
16030;BME280;34770;49.272;11.070;2022-07-23T10:39:25;97908.56;;;23.04;70.45
16030;BME280;34770;49.272;11.070;2022-07-23T10:41:51;97911.28;;;23.32;73.13
16030;BME280;34770;49.272;11.070;2022-07-23T10:44:21;97914.28;;;23.24;78.97
16030;BME280;34770;49.272;11.070;2022-07-23T10:46:57;97911.13;;;22.99;83.12
16030;BME280;34770;49.272;11.070;2022-07-23T10:49:42;97923.25;;;22.59;90.21
16030;BME280;34770;49.272;11.070;2022-07-23T10:57:10;97917.56;;;22.59;97.21
16030;BME280;34770;49.272;11.070;2022-07-23T11:02:35;97911.78;;;22.42;95.13
16030;BME280;34770;49.272;11.070;2022-07-23T11:05:12;97920.41;;;22.11;100.00
16030;BME280;34770;49.272;11.070;2022-07-23T11:32:00;97888.00;;;23.57;97.13
16030;BME280;34770;49.272;11.070;2022-07-23T11:37:04;97862.94;;;24.51;92.39
16030;BME280;34770;49.272;11.070;2022-07-23T11:39:31;97867.84;;;24.50;88.35
16030;BME280;34770;49.272;11.070;2022-07-23T11:41:57;97867.19;;;24.76;84.78
16030;BME280;34770;49.272;11.070;2022-07-23T11:44:52;97861.47;;;25.18;84.01
16030;BME280;34770;49.272;11.070;2022-07-23T11:47:23;97851.41;;;25.43;88.61
16030;BME280;34770;49.272;11.070;2022-07-23T11:49:59;97864.50;;;25.79;78.89
16030;BME280;34770;49.272;11.070;2022-07-23T11:52:27;97854.59;;;26.67;80.18
16030;BME280;34770;49.272;11.070;2022-07-23T11:54:59;97858.53;;;26.25;73.40
16030;BME280;34770;49.272;11.070;2022-07-23T11:57:28;97849.41;;;26.87;67.65
16030;BME280;34770;49.272;11.070;2022-07-23T12:00:18;97845.56;;;27.35;66.52
16030;BME280;34770;49.272;11.070;2022-07-23T12:02:46;97823.22;;;26.09;65.97
16030;BME280;34770;49.272;11.070;2022-07-23T12:05:14;97842.28;;;26.70;66.43
16030;BME280;34770;49.272;11.070;2022-07-23T12:07:43;97839.63;;;26.40;65.44
16030;BME280;34770;49.272;11.070;2022-07-23T12:10:37;97830.53;;;27.75;61.47
16030;BME280;34770;49.272;11.070;2022-07-23T12:13:07;97827.69;;;27.84;55.66
16030;BME280;34770;49.272;11.070;2022-07-23T12:15:38;97822.53;;;27.70;56.44
16030;BME280;34770;49.272;11.070;2022-07-23T12:18:05;97832.59;;;26.89;55.31
16030;BME280;34770;49.272;11.070;2022-07-23T12:20:34;97807.03;;;27.80;55.99
16030;BME280;34770;49.272;11.070;2022-07-23T12:23:03;97810.94;;;28.42;52.79
16030;BME280;34770;49.272;11.070;2022-07-23T12:25:32;97805.22;;;28.24;52.40
16030;BME280;34770;49.272;11.070;2022-07-23T12:28:18;97808.72;;;28.37;50.88
16030;BME280;34770;49.272;11.070;2022-07-23T12:33:14;97812.69;;;28.12;49.88
16030;BME280;34770;49.272;11.070;2022-07-23T12:35:45;97810.44;;;28.16;50.42
16030;BME280;34770;49.272;11.070;2022-07-23T12:38:13;97782.00;;;28.49;48.08
16030;BME280;34770;49.272;11.070;2022-07-23T12:40:53;97808.88;;;29.51;48.61
16030;BME280;34770;49.272;11.070;2022-07-23T12:43:30;97798.25;;;29.33;49.49
16030;BME280;34770;49.272;11.070;2022-07-23T12:46:06;97804.50;;;29.31;46.99
16030;BME280;34770;49.272;11.070;2022-07-23T12:51:17;97807.91;;;28.18;50.67
16030;BME280;34770;49.272;11.070;2022-07-23T12:53:51;97810.94;;;28.89;46.14
16030;BME280;34770;49.272;11.070;2022-07-23T12:56:43;97805.22;;;28.61;47.12
16030;BME280;34770;49.272;11.070;2022-07-23T12:59:10;97796.19;;;29.67;45.89
16030;BME280;34770;49.272;11.070;2022-07-23T13:01:38;97801.84;;;28.90;44.43
16030;BME280;34770;49.272;11.070;2022-07-23T13:04:05;97810.31;;;28.47;46.54
16030;BME280;34770;49.272;11.070;2022-07-23T13:06:36;97809.97;;;28.45;46.97
16030;BME280;34770;49.272;11.070;2022-07-23T13:09:03;97777.41;;;28.43;46.66
16030;BME280;34770;49.272;11.070;2022-07-23T13:11:29;97798.88;;;28.75;47.24
16030;BME280;34770;49.272;11.070;2022-07-23T13:13:54;97802.84;;;28.78;47.19
16030;BME280;34770;49.272;11.070;2022-07-23T13:16:20;97805.00;;;29.11;45.35
16030;BME280;34770;49.272;11.070;2022-07-23T13:18:45;97811.81;;;29.32;46.99
16030;BME280;34770;49.272;11.070;2022-07-23T13:21:11;97786.34;;;29.34;46.47
16030;BME280;34770;49.272;11.070;2022-07-23T13:23:37;97820.56;;;29.19;44.70
16030;BME280;34770;49.272;11.070;2022-07-23T13:26:02;97788.72;;;29.36;44.40
16030;BME280;34770;49.272;11.070;2022-07-23T13:28:28;97790.56;;;28.96;44.44
16030;BME280;34770;49.272;11.070;2022-07-23T13:30:54;97791.69;;;28.89;43.78
16030;BME280;34770;49.272;11.070;2022-07-23T13:33:21;97804.81;;;29.24;43.60
16030;BME280;34770;49.272;11.070;2022-07-23T13:35:47;97794.34;;;29.54;43.25
16030;BME280;34770;49.272;11.070;2022-07-23T13:38:13;97801.94;;;29.24;44.53